Capitol Logistics 7485

Operating for MZN



KPHX
Phoenix Sky Harbor International Airport
Phoenix, Arizona
KRFD
Chicago/Rockford International Airport
Rockford, Illinois

Activity Log

Date Flight Route Aircraft Duration
06/03/2021 CPX7485 MRBIL1 JARPA RSK KD51W KP66G IOW PLL A30F 3h 06m
06/21/2020 CPX231 BROAK1 MAXXO ACH J231 LBL J19 ICT J26 IRK J232 MZV PLL B763 3h 00m
01/07/2020 CPX231 SJN9 ABQ J18 SLN J96 IRK J26 BDF J105 VORIN B763 2h 52m
05/10/2019 CPX231 FTHLS5 ABQ FTI J18 MZV B763 2h 50m

Route Details

Aircraft Information
Primary: Boeing 767-300BDSF
Backup: Airbus A300-600F
Route Data
Distance: 1204nm
Duration: 2h 41m
Recm'd Route: FORPE1 ABQ CIM J96 GCK PWE CID DBQ
Origin Wx: KPHX 020651Z 08006KT 10SM FEW130 35/17 A2993 RMK AO2 SLP112 T03500167 404060294
Dest. Wx: KRFD 020554Z 00000KT 10SM CLR 15/12 A3017 RMK AO2 SLP214 T01500122 10244 20144 402720144 51009 $
Notes: